sensor_id;sensor_type;location;lat;lon;timestamp;P1;durP1;ratioP1;P2;durP2;ratioP2
37131;SDS011;23035;50.032;21.978;2023-04-03T00:09:48;4.13;;;2.20;;
37131;SDS011;23035;50.032;21.978;2023-04-03T00:14:53;2.70;;;1.90;;
37131;SDS011;23035;50.032;21.978;2023-04-03T00:19:58;5.78;;;3.33;;
37131;SDS011;23035;50.032;21.978;2023-04-03T00:25:02;3.67;;;2.50;;
37131;SDS011;23035;50.032;21.978;2023-04-03T00:30:09;3.67;;;2.63;;
37131;SDS011;23035;50.032;21.978;2023-04-03T00:35:17;4.93;;;2.70;;
37131;SDS011;23035;50.032;21.978;2023-04-03T00:40:22;3.85;;;2.72;;
37131;SDS011;23035;50.032;21.978;2023-04-03T00:45:31;2.40;;;2.20;;
37131;SDS011;23035;50.032;21.978;2023-04-03T00:50:38;3.35;;;2.10;;
37131;SDS011;23035;50.032;21.978;2023-04-03T00:55:44;2.95;;;2.03;;
37131;SDS011;23035;50.032;21.978;2023-04-03T01:00:54;3.42;;;2.42;;
37131;SDS011;23035;50.032;21.978;2023-04-03T01:06:01;3.80;;;2.67;;
37131;SDS011;23035;50.032;21.978;2023-04-03T01:11:06;5.80;;;2.33;;
37131;SDS011;23035;50.032;21.978;2023-04-03T01:16:12;3.40;;;2.10;;
37131;SDS011;23035;50.032;21.978;2023-04-03T01:27:01;2.08;;;1.85;;
37131;SDS011;23035;50.032;21.978;2023-04-03T01:32:09;3.13;;;2.20;;
37131;SDS011;23035;50.032;21.978;2023-04-03T01:37:16;2.55;;;1.60;;
37131;SDS011;23035;50.032;21.978;2023-04-03T01:42:20;3.10;;;2.05;;
37131;SDS011;23035;50.032;21.978;2023-04-03T01:47:26;1.95;;;1.73;;
37131;SDS011;23035;50.032;21.978;2023-04-03T01:52:31;2.88;;;1.88;;
37131;SDS011;23035;50.032;21.978;2023-04-03T01:57:35;2.55;;;1.83;;
37131;SDS011;23035;50.032;21.978;2023-04-03T02:02:41;2.90;;;1.80;;
37131;SDS011;23035;50.032;21.978;2023-04-03T02:07:46;2.53;;;1.60;;
37131;SDS011;23035;50.032;21.978;2023-04-03T02:12:50;2.08;;;1.60;;
37131;SDS011;23035;50.032;21.978;2023-04-03T02:17:55;3.20;;;2.22;;
37131;SDS011;23035;50.032;21.978;2023-04-03T02:23:01;2.03;;;1.50;;
37131;SDS011;23035;50.032;21.978;2023-04-03T02:28:05;1.95;;;1.55;;
37131;SDS011;23035;50.032;21.978;2023-04-03T02:33:11;3.22;;;1.45;;
37131;SDS011;23035;50.032;21.978;2023-04-03T02:38:16;2.58;;;1.55;;
37131;SDS011;23035;50.032;21.978;2023-04-03T02:43:20;2.08;;;1.63;;
37131;SDS011;23035;50.032;21.978;2023-04-03T02:48:26;3.20;;;1.85;;
37131;SDS011;23035;50.032;21.978;2023-04-03T02:58:39;2.10;;;1.60;;
37131;SDS011;23035;50.032;21.978;2023-04-03T03:03:46;2.83;;;1.67;;
37131;SDS011;23035;50.032;21.978;2023-04-03T03:08:51;3.17;;;1.80;;
37131;SDS011;23035;50.032;21.978;2023-04-03T03:13:55;1.98;;;1.40;;
37131;SDS011;23035;50.032;21.978;2023-04-03T03:19:02;4.33;;;2.00;;
37131;SDS011;23035;50.032;21.978;2023-04-03T03:24:06;2.45;;;1.98;;
37131;SDS011;23035;50.032;21.978;2023-04-03T03:29:11;2.22;;;1.65;;
37131;SDS011;23035;50.032;21.978;2023-04-03T03:34:16;2.22;;;1.75;;
37131;SDS011;23035;50.032;21.978;2023-04-03T03:39:21;2.53;;;2.17;;
37131;SDS011;23035;50.032;21.978;2023-04-03T03:44:25;3.35;;;2.22;;
37131;SDS011;23035;50.032;21.978;2023-04-03T03:49:33;2.58;;;1.90;;
37131;SDS011;23035;50.032;21.978;2023-04-03T03:54:37;3.15;;;1.80;;
37131;SDS011;23035;50.032;21.978;2023-04-03T03:59:42;3.07;;;1.70;;
37131;SDS011;23035;50.032;21.978;2023-04-03T04:04:48;2.70;;;1.70;;
37131;SDS011;23035;50.032;21.978;2023-04-03T04:14:57;3.45;;;1.70;;
37131;SDS011;23035;50.032;21.978;2023-04-03T04:20:04;2.55;;;1.90;;
37131;SDS011;23035;50.032;21.978;2023-04-03T04:25:10;3.55;;;2.40;;
37131;SDS011;23035;50.032;21.978;2023-04-03T04:30:15;4.00;;;2.40;;
37131;SDS011;23035;50.032;21.978;2023-04-03T04:35:24;4.13;;;2.25;;
37131;SDS011;23035;50.032;21.978;2023-04-03T04:40:28;3.47;;;2.20;;
37131;SDS011;23035;50.032;21.978;2023-04-03T04:45:33;4.05;;;2.15;;
37131;SDS011;23035;50.032;21.978;2023-04-03T04:50:39;4.00;;;2.20;;
37131;SDS011;23035;50.032;21.978;2023-04-03T05:00:48;4.38;;;2.08;;
37131;SDS011;23035;50.032;21.978;2023-04-03T05:05:54;2.67;;;1.80;;
37131;SDS011;23035;50.032;21.978;2023-04-03T05:10:58;4.30;;;1.95;;
37131;SDS011;23035;50.032;21.978;2023-04-03T05:16:03;2.10;;;1.60;;
37131;SDS011;23035;50.032;21.978;2023-04-03T05:21:10;3.78;;;2.22;;
37131;SDS011;23035;50.032;21.978;2023-04-03T05:31:21;4.78;;;2.40;;
37131;SDS011;23035;50.032;21.978;2023-04-03T05:36:28;4.80;;;2.50;;
37131;SDS011;23035;50.032;21.978;2023-04-03T05:41:37;3.65;;;2.13;;
37131;SDS011;23035;50.032;21.978;2023-04-03T05:46:41;5.43;;;2.35;;
37131;SDS011;23035;50.032;21.978;2023-04-03T05:51:48;5.82;;;2.17;;
37131;SDS011;23035;50.032;21.978;2023-04-03T05:56:59;8.68;;;4.45;;
37131;SDS011;23035;50.032;21.978;2023-04-03T06:02:04;5.32;;;2.28;;
37131;SDS011;23035;50.032;21.978;2023-04-03T06:07:11;9.43;;;4.05;;
37131;SDS011;23035;50.032;21.978;2023-04-03T06:12:17;5.72;;;2.20;;
37131;SDS011;23035;50.032;21.978;2023-04-03T06:17:22;5.60;;;2.55;;
37131;SDS011;23035;50.032;21.978;2023-04-03T06:22:30;3.78;;;1.77;;
37131;SDS011;23035;50.032;21.978;2023-04-03T06:27:35;4.32;;;2.03;;
37131;SDS011;23035;50.032;21.978;2023-04-03T06:32:40;5.82;;;2.40;;
37131;SDS011;23035;50.032;21.978;2023-04-03T06:37:46;6.50;;;2.50;;
37131;SDS011;23035;50.032;21.978;2023-04-03T06:47:55;6.03;;;2.58;;
37131;SDS011;23035;50.032;21.978;2023-04-03T06:53:00;6.75;;;2.80;;
37131;SDS011;23035;50.032;21.978;2023-04-03T06:58:05;4.18;;;2.38;;
37131;SDS011;23035;50.032;21.978;2023-04-03T07:03:10;4.95;;;2.40;;
37131;SDS011;23035;50.032;21.978;2023-04-03T07:08:16;3.78;;;2.15;;
37131;SDS011;23035;50.032;21.978;2023-04-03T07:13:20;5.78;;;3.10;;
37131;SDS011;23035;50.032;21.978;2023-04-03T07:18:24;4.93;;;2.53;;
37131;SDS011;23035;50.032;21.978;2023-04-03T07:23:30;4.93;;;2.40;;
37131;SDS011;23035;50.032;21.978;2023-04-03T07:28:34;6.90;;;2.53;;
37131;SDS011;23035;50.032;21.978;2023-04-03T07:33:40;6.73;;;2.73;;
37131;SDS011;23035;50.032;21.978;2023-04-03T07:38:46;4.50;;;2.30;;
37131;SDS011;23035;50.032;21.978;2023-04-03T07:43:51;5.55;;;2.67;;
37131;SDS011;23035;50.032;21.978;2023-04-03T07:48:55;6.72;;;2.75;;
37131;SDS011;23035;50.032;21.978;2023-04-03T07:54:01;7.28;;;3.47;;
37131;SDS011;23035;50.032;21.978;2023-04-03T07:59:06;8.45;;;3.35;;
37131;SDS011;23035;50.032;21.978;2023-04-03T08:04:10;5.65;;;3.05;;
37131;SDS011;23035;50.032;21.978;2023-04-03T08:09:16;5.55;;;3.05;;
37131;SDS011;23035;50.032;21.978;2023-04-03T08:14:21;5.50;;;3.25;;
37131;SDS011;23035;50.032;21.978;2023-04-03T08:19:25;4.43;;;2.90;;
37131;SDS011;23035;50.032;21.978;2023-04-03T08:24:31;5.15;;;2.50;;
37131;SDS011;23035;50.032;21.978;2023-04-03T08:29:37;3.28;;;2.20;;
37131;SDS011;23035;50.032;21.978;2023-04-03T08:34:42;8.32;;;3.13;;
37131;SDS011;23035;50.032;21.978;2023-04-03T08:39:47;8.65;;;3.70;;
37131;SDS011;23035;50.032;21.978;2023-04-03T08:44:53;4.47;;;2.47;;
37131;SDS011;23035;50.032;21.978;2023-04-03T08:50:04;4.88;;;2.83;;
37131;SDS011;23035;50.032;21.978;2023-04-03T08:55:16;4.50;;;3.00;;
37131;SDS011;23035;50.032;21.978;2023-04-03T09:00:28;7.32;;;3.13;;
37131;SDS011;23035;50.032;21.978;2023-04-03T09:05:39;9.75;;;3.33;;
37131;SDS011;23035;50.032;21.978;2023-04-03T09:10:49;9.82;;;3.42;;
37131;SDS011;23035;50.032;21.978;2023-04-03T09:15:55;4.45;;;2.70;;
37131;SDS011;23035;50.032;21.978;2023-04-03T09:21:01;8.10;;;3.27;;
37131;SDS011;23035;50.032;21.978;2023-04-03T09:26:13;9.15;;;3.42;;
37131;SDS011;23035;50.032;21.978;2023-04-03T09:31:20;10.80;;;3.47;;
37131;SDS011;23035;50.032;21.978;2023-04-03T09:36:40;10.63;;;3.47;;
37131;SDS011;23035;50.032;21.978;2023-04-03T09:41:57;5.25;;;3.10;;
37131;SDS011;23035;50.032;21.978;2023-04-03T09:47:16;6.88;;;2.75;;
37131;SDS011;23035;50.032;21.978;2023-04-03T09:52:23;8.10;;;2.47;;
37131;SDS011;23035;50.032;21.978;2023-04-03T10:02:38;5.70;;;2.75;;
37131;SDS011;23035;50.032;21.978;2023-04-03T10:07:43;5.07;;;2.70;;
37131;SDS011;23035;50.032;21.978;2023-04-03T10:13:04;9.02;;;3.05;;
37131;SDS011;23035;50.032;21.978;2023-04-03T10:18:18;7.38;;;3.30;;
37131;SDS011;23035;50.032;21.978;2023-04-03T10:23:35;8.18;;;2.53;;
37131;SDS011;23035;50.032;21.978;2023-04-03T10:28:48;6.88;;;2.88;;
37131;SDS011;23035;50.032;21.978;2023-04-03T10:34:02;7.18;;;3.20;;
37131;SDS011;23035;50.032;21.978;2023-04-03T10:39:15;6.93;;;2.90;;
37131;SDS011;23035;50.032;21.978;2023-04-03T10:44:35;8.73;;;2.97;;
37131;SDS011;23035;50.032;21.978;2023-04-03T10:49:47;6.53;;;3.20;;
37131;SDS011;23035;50.032;21.978;2023-04-03T10:55:03;15.35;;;4.45;;
37131;SDS011;23035;50.032;21.978;2023-04-03T11:00:23;12.27;;;4.38;;
37131;SDS011;23035;50.032;21.978;2023-04-03T11:05:34;8.55;;;3.30;;
37131;SDS011;23035;50.032;21.978;2023-04-03T11:10:44;7.25;;;3.53;;
37131;SDS011;23035;50.032;21.978;2023-04-03T11:15:52;7.20;;;3.45;;
37131;SDS011;23035;50.032;21.978;2023-04-03T11:20:59;6.88;;;3.47;;
37131;SDS011;23035;50.032;21.978;2023-04-03T11:26:09;8.43;;;3.45;;
37131;SDS011;23035;50.032;21.978;2023-04-03T11:31:29;6.72;;;3.22;;
37131;SDS011;23035;50.032;21.978;2023-04-03T11:36:46;10.13;;;3.25;;
37131;SDS011;23035;50.032;21.978;2023-04-03T11:41:52;5.68;;;3.17;;
37131;SDS011;23035;50.032;21.978;2023-04-03T11:47:43;8.63;;;3.70;;
37131;SDS011;23035;50.032;21.978;2023-04-03T11:52:58;7.07;;;3.63;;
37131;SDS011;23035;50.032;21.978;2023-04-03T11:58:11;10.38;;;3.63;;
37131;SDS011;23035;50.032;21.978;2023-04-03T12:03:33;8.82;;;3.42;;
37131;SDS011;23035;50.032;21.978;2023-04-03T12:08:55;5.60;;;3.13;;
37131;SDS011;23035;50.032;21.978;2023-04-03T12:14:03;6.18;;;2.78;;
37131;SDS011;23035;50.032;21.978;2023-04-03T12:24:44;8.02;;;3.65;;
37131;SDS011;23035;50.032;21.978;2023-04-03T12:29:52;12.93;;;3.55;;
37131;SDS011;23035;50.032;21.978;2023-04-03T12:35:07;7.25;;;3.65;;
37131;SDS011;23035;50.032;21.978;2023-04-03T12:40:23;7.85;;;4.05;;
37131;SDS011;23035;50.032;21.978;2023-04-03T12:45:38;6.03;;;3.00;;
37131;SDS011;23035;50.032;21.978;2023-04-03T12:50:46;5.47;;;2.78;;
37131;SDS011;23035;50.032;21.978;2023-04-03T12:55:56;8.65;;;3.38;;
37131;SDS011;23035;50.032;21.978;2023-04-03T13:01:01;5.78;;;3.13;;
37131;SDS011;23035;50.032;21.978;2023-04-03T13:06:10;6.53;;;3.53;;
37131;SDS011;23035;50.032;21.978;2023-04-03T13:11:20;6.60;;;3.38;;
37131;SDS011;23035;50.032;21.978;2023-04-03T13:16:25;7.43;;;3.70;;
37131;SDS011;23035;50.032;21.978;2023-04-03T13:21:32;6.55;;;3.35;;
37131;SDS011;23035;50.032;21.978;2023-04-03T13:26:38;6.60;;;3.20;;
37131;SDS011;23035;50.032;21.978;2023-04-03T13:31:43;9.98;;;3.15;;
37131;SDS011;23035;50.032;21.978;2023-04-03T13:36:56;4.50;;;3.00;;
37131;SDS011;23035;50.032;21.978;2023-04-03T13:42:14;4.40;;;2.55;;
37131;SDS011;23035;50.032;21.978;2023-04-03T13:47:20;8.95;;;2.97;;
37131;SDS011;23035;50.032;21.978;2023-04-03T13:52:30;4.10;;;2.60;;
37131;SDS011;23035;50.032;21.978;2023-04-03T13:57:48;6.15;;;3.80;;
37131;SDS011;23035;50.032;21.978;2023-04-03T14:02:53;7.95;;;3.85;;
37131;SDS011;23035;50.032;21.978;2023-04-03T14:08:00;6.78;;;2.95;;
37131;SDS011;23035;50.032;21.978;2023-04-03T14:13:05;6.78;;;3.00;;
37131;SDS011;23035;50.032;21.978;2023-04-03T14:18:10;7.68;;;3.35;;
37131;SDS011;23035;50.032;21.978;2023-04-03T14:23:16;6.00;;;3.83;;
37131;SDS011;23035;50.032;21.978;2023-04-03T14:28:21;12.23;;;4.93;;
37131;SDS011;23035;50.032;21.978;2023-04-03T14:33:26;7.95;;;4.00;;
37131;SDS011;23035;50.032;21.978;2023-04-03T14:38:35;9.15;;;4.47;;
37131;SDS011;23035;50.032;21.978;2023-04-03T14:43:39;12.48;;;4.50;;
37131;SDS011;23035;50.032;21.978;2023-04-03T14:48:43;7.55;;;4.13;;
37131;SDS011;23035;50.032;21.978;2023-04-03T14:53:49;11.60;;;4.90;;
37131;SDS011;23035;50.032;21.978;2023-04-03T15:03:59;10.77;;;4.70;;
37131;SDS011;23035;50.032;21.978;2023-04-03T15:09:04;8.18;;;4.10;;
37131;SDS011;23035;50.032;21.978;2023-04-03T15:14:11;6.55;;;3.60;;
37131;SDS011;23035;50.032;21.978;2023-04-03T15:19:31;8.80;;;3.90;;
37131;SDS011;23035;50.032;21.978;2023-04-03T15:24:42;10.80;;;3.47;;
37131;SDS011;23035;50.032;21.978;2023-04-03T15:29:47;7.45;;;3.90;;
37131;SDS011;23035;50.032;21.978;2023-04-03T15:34:51;10.50;;;4.65;;
37131;SDS011;23035;50.032;21.978;2023-04-03T15:39:59;6.82;;;3.83;;
37131;SDS011;23035;50.032;21.978;2023-04-03T15:50:09;8.35;;;3.63;;
37131;SDS011;23035;50.032;21.978;2023-04-03T15:55:15;7.50;;;3.50;;
37131;SDS011;23035;50.032;21.978;2023-04-03T16:05:24;11.50;;;5.50;;
37131;SDS011;23035;50.032;21.978;2023-04-03T16:10:30;11.50;;;4.57;;
37131;SDS011;23035;50.032;21.978;2023-04-03T16:15:35;12.10;;;6.03;;
37131;SDS011;23035;50.032;21.978;2023-04-03T16:20:39;13.55;;;5.57;;
37131;SDS011;23035;50.032;21.978;2023-04-03T16:25:49;11.00;;;5.55;;
37131;SDS011;23035;50.032;21.978;2023-04-03T16:30:57;21.88;;;8.60;;
37131;SDS011;23035;50.032;21.978;2023-04-03T16:36:03;19.23;;;6.80;;
37131;SDS011;23035;50.032;21.978;2023-04-03T16:41:09;13.80;;;6.38;;
37131;SDS011;23035;50.032;21.978;2023-04-03T16:46:13;12.85;;;6.00;;
37131;SDS011;23035;50.032;21.978;2023-04-03T16:51:18;12.80;;;5.85;;
37131;SDS011;23035;50.032;21.978;2023-04-03T16:56:24;15.95;;;5.72;;
37131;SDS011;23035;50.032;21.978;2023-04-03T17:01:28;12.30;;;4.65;;
37131;SDS011;23035;50.032;21.978;2023-04-03T17:06:36;9.73;;;4.40;;
37131;SDS011;23035;50.032;21.978;2023-04-03T17:11:41;10.90;;;5.18;;
37131;SDS011;23035;50.032;21.978;2023-04-03T17:16:49;11.85;;;5.28;;
37131;SDS011;23035;50.032;21.978;2023-04-03T17:21:54;12.07;;;5.60;;
37131;SDS011;23035;50.032;21.978;2023-04-03T17:27:00;12.45;;;6.30;;
37131;SDS011;23035;50.032;21.978;2023-04-03T17:32:05;13.57;;;6.57;;
37131;SDS011;23035;50.032;21.978;2023-04-03T17:37:09;22.30;;;7.85;;
37131;SDS011;23035;50.032;21.978;2023-04-03T17:42:15;24.48;;;10.50;;
37131;SDS011;23035;50.032;21.978;2023-04-03T17:52:23;30.92;;;11.70;;
37131;SDS011;23035;50.032;21.978;2023-04-03T17:57:31;21.98;;;8.05;;
37131;SDS011;23035;50.032;21.978;2023-04-03T18:02:35;27.23;;;9.73;;
37131;SDS011;23035;50.032;21.978;2023-04-03T18:07:39;24.95;;;9.88;;
37131;SDS011;23035;50.032;21.978;2023-04-03T18:12:45;21.15;;;8.25;;
37131;SDS011;23035;50.032;21.978;2023-04-03T18:17:49;16.33;;;6.65;;
37131;SDS011;23035;50.032;21.978;2023-04-03T18:22:59;13.82;;;6.25;;
37131;SDS011;23035;50.032;21.978;2023-04-03T18:28:05;19.50;;;8.27;;
37131;SDS011;23035;50.032;21.978;2023-04-03T18:33:09;18.58;;;8.05;;
37131;SDS011;23035;50.032;21.978;2023-04-03T18:38:13;21.58;;;8.95;;
37131;SDS011;23035;50.032;21.978;2023-04-03T18:43:19;22.50;;;9.95;;
37131;SDS011;23035;50.032;21.978;2023-04-03T18:48:24;23.08;;;8.93;;
37131;SDS011;23035;50.032;21.978;2023-04-03T18:53:28;17.85;;;9.25;;
37131;SDS011;23035;50.032;21.978;2023-04-03T18:58:34;23.77;;;10.57;;
37131;SDS011;23035;50.032;21.978;2023-04-03T19:03:38;27.58;;;11.20;;
37131;SDS011;23035;50.032;21.978;2023-04-03T19:08:43;28.23;;;11.67;;
37131;SDS011;23035;50.032;21.978;2023-04-03T19:13:49;23.33;;;9.85;;
37131;SDS011;23035;50.032;21.978;2023-04-03T19:19:14;27.90;;;10.93;;
37131;SDS011;23035;50.032;21.978;2023-04-03T19:24:18;25.42;;;9.75;;
37131;SDS011;23035;50.032;21.978;2023-04-03T19:29:24;33.50;;;12.50;;
37131;SDS011;23035;50.032;21.978;2023-04-03T19:34:28;21.05;;;8.75;;
37131;SDS011;23035;50.032;21.978;2023-04-03T19:39:33;20.88;;;8.10;;
37131;SDS011;23035;50.032;21.978;2023-04-03T19:44:40;18.25;;;7.30;;
37131;SDS011;23035;50.032;21.978;2023-04-03T19:49:45;16.58;;;7.28;;
37131;SDS011;23035;50.032;21.978;2023-04-03T19:54:49;19.77;;;8.43;;
37131;SDS011;23035;50.032;21.978;2023-04-03T19:59:55;19.10;;;7.70;;
37131;SDS011;23035;50.032;21.978;2023-04-03T20:05:00;19.38;;;8.05;;
37131;SDS011;23035;50.032;21.978;2023-04-03T20:10:04;20.02;;;7.80;;
37131;SDS011;23035;50.032;21.978;2023-04-03T20:15:10;18.15;;;6.78;;
37131;SDS011;23035;50.032;21.978;2023-04-03T20:20:14;19.23;;;6.95;;
37131;SDS011;23035;50.032;21.978;2023-04-03T20:25:20;19.10;;;8.35;;
37131;SDS011;23035;50.032;21.978;2023-04-03T20:30:46;24.75;;;9.02;;
37131;SDS011;23035;50.032;21.978;2023-04-03T20:35:52;18.27;;;7.35;;
37131;SDS011;23035;50.032;21.978;2023-04-03T20:46:03;14.00;;;5.88;;
37131;SDS011;23035;50.032;21.978;2023-04-03T20:56:12;9.00;;;4.53;;
37131;SDS011;23035;50.032;21.978;2023-04-03T21:01:19;14.52;;;4.50;;
37131;SDS011;23035;50.032;21.978;2023-04-03T21:23:09;6.53;;;3.65;;
37131;SDS011;23035;50.032;21.978;2023-04-03T21:28:13;7.10;;;3.83;;
37131;SDS011;23035;50.032;21.978;2023-04-03T21:33:19;14.13;;;5.87;;
37131;SDS011;23035;50.032;21.978;2023-04-03T21:38:23;12.02;;;4.97;;
37131;SDS011;23035;50.032;21.978;2023-04-03T21:43:28;13.90;;;5.00;;
37131;SDS011;23035;50.032;21.978;2023-04-03T21:48:34;13.88;;;5.88;;
37131;SDS011;23035;50.032;21.978;2023-04-03T21:53:38;21.33;;;6.78;;
37131;SDS011;23035;50.032;21.978;2023-04-03T21:58:43;17.63;;;6.78;;
37131;SDS011;23035;50.032;21.978;2023-04-03T22:03:48;16.88;;;5.70;;
37131;SDS011;23035;50.032;21.978;2023-04-03T22:08:52;12.05;;;5.32;;
37131;SDS011;23035;50.032;21.978;2023-04-03T22:13:58;10.23;;;4.68;;
37131;SDS011;23035;50.032;21.978;2023-04-03T22:19:04;13.43;;;4.95;;
37131;SDS011;23035;50.032;21.978;2023-04-03T22:24:08;11.13;;;4.75;;
37131;SDS011;23035;50.032;21.978;2023-04-03T22:29:12;10.98;;;4.95;;
37131;SDS011;23035;50.032;21.978;2023-04-03T22:34:18;13.25;;;4.82;;
37131;SDS011;23035;50.032;21.978;2023-04-03T22:39:24;9.68;;;4.88;;
37131;SDS011;23035;50.032;21.978;2023-04-03T22:44:28;9.27;;;4.38;;
37131;SDS011;23035;50.032;21.978;2023-04-03T22:49:39;10.30;;;4.93;;
37131;SDS011;23035;50.032;21.978;2023-04-03T22:54:43;15.90;;;5.50;;
37131;SDS011;23035;50.032;21.978;2023-04-03T22:59:47;12.20;;;6.13;;
37131;SDS011;23035;50.032;21.978;2023-04-03T23:04:53;13.88;;;6.03;;
37131;SDS011;23035;50.032;21.978;2023-04-03T23:09:57;13.32;;;6.57;;
37131;SDS011;23035;50.032;21.978;2023-04-03T23:15:02;15.10;;;7.10;;
37131;SDS011;23035;50.032;21.978;2023-04-03T23:20:09;16.43;;;6.63;;
37131;SDS011;23035;50.032;21.978;2023-04-03T23:25:13;11.80;;;6.05;;
37131;SDS011;23035;50.032;21.978;2023-04-03T23:30:18;16.27;;;6.78;;
37131;SDS011;23035;50.032;21.978;2023-04-03T23:35:24;13.23;;;6.00;;
37131;SDS011;23035;50.032;21.978;2023-04-03T23:40:28;18.23;;;6.75;;
37131;SDS011;23035;50.032;21.978;2023-04-03T23:45:32;18.00;;;6.25;;
37131;SDS011;23035;50.032;21.978;2023-04-03T23:50:38;19.52;;;6.22;;
37131;SDS011;23035;50.032;21.978;2023-04-03T23:55:42;16.70;;;6.18;;
